Terminal Aerodrome Forecast
Issued by NWS

Home | Current Version | Previous Version | Text Only | Print | Product List | Glossary On
Versions: 1 2 3 4 5 6 7 8 9 10 11 12 13 14 15 16 17 18 19 20 21 22
000
FTUS44 KLZK 291100
TAFPBF
TAF
KPBF 291134Z 2912/3012 13005KT P6SM FEW050 SCT100 OVC250
     FM291800 18007KT P6SM VCTS SCT030CB BKN100 OVC250
     FM292200 19009KT P6SM VCTS SCT020 BKN050CB OVC150 PROB30
      2922/3004 5SM -TSRA BR BKN035CB OVC080=

USA.gov is the U.S. government's official web portal to all federal, state and local government web resources and services.